Time;durP1;ratioP1;P1;durP2;ratioP2;P2;SDS_P1;SDS_P2;PMS_P1;PMS_P2;Temp;Humidity;BMP_temperature;BMP_pressure;BME280_temperature;BME280_humidity;BME280_pressure;Samples;Min_cycle;Max_cycle;Signal;HPM_P1;HPM_P2
2023/10/07 00:01:54;;;;;;;;;;;;;;;21.60;58.27;101077.66;5041882;28;6514;-70
2023/10/07 00:04:21;;;;;;;;;;;;;;;21.59;58.19;101065.41;5043259;28;2079;-70
2023/10/07 00:06:47;;;;;;;;;;;;;;;21.59;58.15;101065.41;5042395;28;2090;-71
2023/10/07 00:09:16;;;;;;;;;;;;;;;21.59;57.97;101064.66;5041438;28;2138;-70
2023/10/07 00:11:46;;;;;;;;;;;;;;;21.58;57.93;101057.41;5042748;28;2081;-70
2023/10/07 00:14:14;;;;;;;;;;;;;;;21.58;58.20;101063.16;5040709;28;2267;-70
2023/10/07 00:16:43;;;;;;;;;;;;;;;21.56;58.21;101065.97;5042833;28;2074;-70
2023/10/07 00:19:10;;;;;;;;;;;;;;;21.55;58.08;101065.22;5040328;28;2278;-70
2023/10/07 00:24:25;;;;;;;;;;;;;;;21.53;58.50;101062.25;5042185;28;1914;-71
2023/10/07 00:26:52;;;;;;;;;;;;;;;21.52;58.37;101060.78;5044131;28;1758;-70
2023/10/07 00:29:23;;;;;;;;;;;;;;;21.52;58.40;101061.50;5039987;28;2204;-70
2023/10/07 00:31:53;;;;;;;;;;;;;;;21.52;58.49;101049.25;5041593;28;6307;-70
2023/10/07 00:34:27;;;;;;;;;;;;;;;21.50;58.46;101041.25;5043518;28;1829;-70
2023/10/07 00:36:58;;;;;;;;;;;;;;;21.51;58.37;101044.88;5041564;28;2213;-70
2023/10/07 00:39:31;;;;;;;;;;;;;;;21.49;58.38;101039.78;5040615;28;2271;-70
2023/10/07 00:41:58;;;;;;;;;;;;;;;21.51;58.45;101036.97;5040540;28;2406;-70
2023/10/07 00:44:35;;;;;;;;;;;;;;;21.51;58.60;101033.38;5041711;28;2370;-70
2023/10/07 00:47:12;;;;;;;;;;;;;;;21.49;58.21;101033.28;5023514;28;2147;-70
2023/10/07 00:50:01;;;;;;;;;;;;;;;21.48;58.40;101038.25;5041063;28;2147;-70
2023/10/07 00:52:29;;;;;;;;;;;;;;;21.47;58.54;101038.94;5041746;28;2490;-70
2023/10/07 00:57:37;;;;;;;;;;;;;;;21.46;58.30;101034.56;5040248;28;2196;-70
2023/10/07 01:02:51;;;;;;;;;;;;;;;21.47;58.60;101010.13;5040225;28;2381;-70
2023/10/07 01:05:33;;;;;;;;;;;;;;;21.46;58.40;101028.78;5042253;28;2426;-70
2023/10/07 01:07:59;;;;;;;;;;;;;;;21.45;58.45;101030.19;5017703;28;1709;-70
2023/10/07 01:10:29;;;;;;;;;;;;;;;21.43;58.65;101024.34;5038780;28;2164;-70
2023/10/07 01:12:59;;;;;;;;;;;;;;;21.45;58.39;101027.31;5040808;28;2090;-70
2023/10/07 01:15:29;;;;;;;;;;;;;;;21.45;58.55;101024.44;5040954;28;1793;-70
2023/10/07 01:18:14;;;;;;;;;;;;;;;21.44;58.38;101034.47;5041287;28;1781;-70
2023/10/07 01:23:24;;;;;;;;;;;;;;;21.43;58.57;101033.00;5038275;28;2287;-70
2023/10/07 01:25:51;;;;;;;;;;;;;;;21.43;58.37;101030.09;5024253;28;1701;-70
2023/10/07 01:28:17;;;;;;;;;;;;;;;21.42;58.73;101040.16;5020976;28;1797;-70
2023/10/07 01:31:07;;;;;;;;;;;;;;;21.43;58.36;101009.94;5035262;28;6299;-70
2023/10/07 01:33:45;;;;;;;;;;;;;;;21.43;58.35;101030.09;5038877;28;2334;-70
2023/10/07 01:36:24;;;;;;;;;;;;;;;21.41;58.37;101018.50;5041958;28;2290;-70
2023/10/07 01:38:51;;;;;;;;;;;;;;;21.41;58.44;101021.38;5038383;28;2405;-70
2023/10/07 01:41:18;;;;;;;;;;;;;;;21.41;58.70;101009.84;5023142;28;2488;-70
2023/10/07 01:44:00;;;;;;;;;;;;;;;21.40;58.46;101009.13;5038648;28;2353;-70
2023/10/07 01:46:27;;;;;;;;;;;;;;;21.39;58.54;101018.38;5040088;28;2200;-70
2023/10/07 01:48:55;;;;;;;;;;;;;;;21.40;58.52;101009.13;5024766;28;1686;-70
2023/10/07 01:51:23;;;;;;;;;;;;;;;21.42;58.37;101005.59;5039510;28;2204;-70
2023/10/07 01:53:49;;;;;;;;;;;;;;;21.40;58.47;101005.47;5039366;28;2390;-70
2023/10/07 01:56:16;;;;;;;;;;;;;;;21.40;58.74;101002.59;5038381;28;2357;-70
2023/10/07 01:58:42;;;;;;;;;;;;;;;21.40;58.59;101005.47;5018779;28;2301;-70
2023/10/07 02:01:10;;;;;;;;;;;;;;;21.39;58.71;101001.81;5036452;28;6111;-70
2023/10/07 02:03:36;;;;;;;;;;;;;;;21.39;58.92;101001.09;5039073;28;2546;-70
2023/10/07 02:06:05;;;;;;;;;;;;;;;21.38;58.84;101011.13;5038666;28;2627;-71
2023/10/07 02:08:31;;;;;;;;;;;;;;;21.39;58.53;101001.09;5039027;28;2350;-70
2023/10/07 02:10:58;;;;;;;;;;;;;;;21.39;58.74;101006.84;5021980;28;2441;-70
2023/10/07 02:13:27;;;;;;;;;;;;;;;21.37;58.67;100998.84;5040686;28;2473;-70
2023/10/07 02:15:54;;;;;;;;;;;;;;;21.38;58.62;101005.38;5019334;28;2370;-70
2023/10/07 02:18:21;;;;;;;;;;;;;;;21.36;58.86;101003.13;5020103;28;2264;-70
2023/10/07 02:21:07;;;;;;;;;;;;;;;21.36;58.70;100990.88;5037335;28;2443;-70
2023/10/07 02:23:37;;;;;;;;;;;;;;;21.34;58.81;100989.38;5036460;28;2271;-70
2023/10/07 02:26:07;;;;;;;;;;;;;;;21.34;58.83;100977.84;5038336;28;2274;-70
2023/10/07 02:28:34;;;;;;;;;;;;;;;21.33;58.64;100987.16;5038117;28;2242;-70
2023/10/07 02:31:07;;;;;;;;;;;;;;;21.34;58.81;100989.38;5036517;28;6195;-70
2023/10/07 02:33:41;;;;;;;;;;;;;;;21.32;58.68;100980.66;5036905;28;2248;-70
2023/10/07 02:36:12;;;;;;;;;;;;;;;21.33;58.73;100981.41;5039249;28;2313;-70
2023/10/07 02:38:42;;;;;;;;;;;;;;;21.33;58.64;100973.50;5037994;28;2305;-70
2023/10/07 02:41:17;;;;;;;;;;;;;;;21.33;58.65;100967.75;5021492;28;2303;-70
2023/10/07 02:43:48;;;;;;;;;;;;;;;21.33;58.86;100982.16;5021122;28;2398;-70
2023/10/07 02:46:31;;;;;;;;;;;;;;;21.33;58.89;100987.16;5023789;28;2252;-70
2023/10/07 02:49:06;;;;;;;;;;;;;;;21.33;58.85;100978.53;5036976;28;2165;-70
2023/10/07 02:51:33;;;;;;;;;;;;;;;21.32;58.97;100977.03;5036615;28;2247;-70
2023/10/07 02:54:06;;;;;;;;;;;;;;;21.31;58.68;100987.81;5040874;28;2393;-70
2023/10/07 02:56:43;;;;;;;;;;;;;;;21.31;58.88;100993.56;5038338;28;2542;-71
2023/10/07 02:59:23;;;;;;;;;;;;;;;21.31;58.66;100987.81;5041257;28;2243;-70
2023/10/07 03:02:12;;;;;;;;;;;;;;;21.32;58.61;100971.25;5041170;28;6332;-70
2023/10/07 03:04:36;;;;;;;;;;;;;;;21.33;58.87;100969.88;5023689;28;2326;-71
2023/10/07 03:07:13;;;;;;;;;;;;;;;21.33;58.81;100985.03;5040687;28;2392;-70
2023/10/07 03:09:45;;;;;;;;;;;;;;;21.34;58.79;100972.09;5044650;28;2158;-70
2023/10/07 03:12:16;;;;;;;;;;;;;;;21.34;58.60;100965.59;5042217;28;2607;-70
2023/10/07 03:14:43;;;;;;;;;;;;;;;21.32;58.82;100969.13;5041407;28;2432;-70
2023/10/07 03:17:17;;;;;;;;;;;;;;;21.33;59.11;100970.63;5037840;28;2955;-70
2023/10/07 03:19:58;;;;;;;;;;;;;;;21.33;58.75;100970.63;5041332;28;2705;-70
2023/10/07 03:22:28;;;;;;;;;;;;;;;21.32;58.61;100966.25;5041984;28;2337;-70
2023/10/07 03:25:00;;;;;;;;;;;;;;;21.31;58.61;100961.88;5041767;28;2485;-71
2023/10/07 03:27:28;;;;;;;;;;;;;;;21.31;58.94;100964.78;5039950;28;2315;-71
2023/10/07 03:30:12;;;;;;;;;;;;;;;21.34;58.88;100960.56;5022084;28;2280;-71
2023/10/07 03:35:35;;;;;;;;;;;;;;;21.36;58.99;100968.56;5029745;28;2505;-70
2023/10/07 03:38:08;;;;;;;;;;;;;;;21.33;58.79;100970.63;5042098;28;2473;-70
2023/10/07 03:40:35;;;;;;;;;;;;;;;21.32;58.85;100966.25;5040218;28;2381;-70
2023/10/07 03:43:02;;;;;;;;;;;;;;;21.34;59.19;100974.97;5025795;28;2338;-70
2023/10/07 03:45:29;;;;;;;;;;;;;;;21.34;59.16;100972.09;5039564;28;2448;-70
2023/10/07 03:47:56;;;;;;;;;;;;;;;21.32;58.97;100979.91;5041809;28;2577;-70
2023/10/07 03:50:34;;;;;;;;;;;;;;;21.33;59.06;100969.88;5041811;28;2353;-69
2023/10/07 03:53:01;;;;;;;;;;;;;;;21.31;59.35;100970.53;5023523;28;2350;-70
2023/10/07 03:55:28;;;;;;;;;;;;;;;21.32;59.07;100969.13;5041058;28;2406;-70
2023/10/07 03:57:55;;;;;;;;;;;;;;;21.31;59.35;100979.16;5038134;28;2333;-70
2023/10/07 04:00:27;;;;;;;;;;;;;;;21.31;59.40;100967.66;5037796;28;6954;-70
2023/10/07 04:02:53;;;;;;;;;;;;;;;21.31;59.36;100978.44;5043290;28;2500;-70
2023/10/07 04:05:31;;;;;;;;;;;;;;;21.30;59.38;100977.69;5041220;28;2329;-70
2023/10/07 04:07:58;;;;;;;;;;;;;;;21.30;59.54;100971.94;5041568;28;2338;-70
2023/10/07 04:10:36;;;;;;;;;;;;;;;21.31;59.48;100976.28;5026737;28;2486;-70
2023/10/07 04:13:07;;;;;;;;;;;;;;;21.30;59.16;100977.69;5043716;28;2235;-70
2023/10/07 04:15:44;;;;;;;;;;;;;;;21.30;59.52;100971.94;5041382;28;2342;-70
2023/10/07 04:18:10;;;;;;;;;;;;;;;21.31;59.54;100984.94;5038907;28;2223;-70
2023/10/07 04:21:12;;;;;;;;;;;;;;;21.30;59.43;100986.34;5041827;28;2355;-70
2023/10/07 04:23:30;;;;;;;;;;;;;;;21.30;59.50;100976.94;5039519;28;2252;-70
2023/10/07 04:26:03;;;;;;;;;;;;;;;21.30;59.38;100976.94;5041153;28;2388;-70
2023/10/07 04:28:31;;;;;;;;;;;;;;;21.30;59.67;100976.94;5040538;28;2181;-70
2023/10/07 04:30:57;;;;;;;;;;;;;;;21.30;59.22;100980.56;5040065;28;6301;-70
2023/10/07 04:33:32;;;;;;;;;;;;;;;21.29;59.58;100970.44;5039473;28;2353;-70
2023/10/07 04:36:02;;;;;;;;;;;;;;;21.30;59.38;100974.81;5038010;28;2317;-70
2023/10/07 04:41:30;;;;;;;;;;;;;;;21.29;59.56;100963.94;5038895;28;2341;-70
2023/10/07 04:43:59;;;;;;;;;;;;;;;21.28;59.82;100968.19;5042635;28;2322;-70
2023/10/07 04:46:28;;;;;;;;;;;;;;;21.29;59.73;100961.78;5039493;28;2574;-70
2023/10/07 04:49:11;;;;;;;;;;;;;;;21.28;59.37;100953.81;5040766;28;2579;-70
2023/10/07 04:54:11;;;;;;;;;;;;;;;21.29;59.47;100961.78;5039344;28;2556;-70
2023/10/07 04:56:39;;;;;;;;;;;;;;;21.29;59.51;100956.03;5039426;28;2639;-70
2023/10/07 04:59:06;;;;;;;;;;;;;;;21.29;59.49;100953.16;5038938;28;2318;-70
2023/10/07 05:01:33;;;;;;;;;;;;;;;21.30;59.67;100956.78;5040965;28;6977;-70
2023/10/07 05:04:04;;;;;;;;;;;;;;;21.29;59.52;100946.66;5040882;28;2369;-70
2023/10/07 05:06:34;;;;;;;;;;;;;;;21.29;59.46;100958.19;5039842;28;2668;-70
2023/10/07 05:09:09;;;;;;;;;;;;;;;21.28;59.51;100957.44;5036806;28;2385;-70
2023/10/07 05:11:42;;;;;;;;;;;;;;;21.29;59.63;100952.41;5039148;28;2419;-69
2023/10/07 05:14:10;;;;;;;;;;;;;;;21.28;59.81;100951.69;5038544;28;2385;-70
2023/10/07 05:16:37;;;;;;;;;;;;;;;21.28;59.81;100954.56;5038716;28;2326;-70
2023/10/07 05:19:08;;;;;;;;;;;;;;;21.28;59.47;100951.69;5039755;28;2442;-70
2023/10/07 05:21:37;;;;;;;;;;;;;;;21.26;59.65;100960.22;5040259;28;2299;-70
2023/10/07 05:24:09;;;;;;;;;;;;;;;21.27;59.79;100961.69;5037837;28;2333;-70
2023/10/07 05:26:36;;;;;;;;;;;;;;;21.27;59.87;100961.69;5038165;28;2388;-70
2023/10/07 05:29:03;;;;;;;;;;;;;;;21.26;59.59;100954.47;5039038;28;2322;-70
2023/10/07 05:31:30;;;;;;;;;;;;;;;21.28;59.58;100950.91;5038430;28;7228;-70
2023/10/07 05:33:59;;;;;;;;;;;;;;;21.26;59.58;100966.00;5037884;28;2373;-75
2023/10/07 05:36:29;;;;;;;;;;;;;;;21.27;59.74;100961.69;5040173;28;2539;-80
2023/10/07 05:38:56;;;;;;;;;;;;;;;21.26;59.64;100960.22;5024865;28;2370;-69
2023/10/07 05:41:28;;;;;;;;;;;;;;;21.27;59.72;100967.47;5039593;28;2326;-68
2023/10/07 05:43:54;;;;;;;;;;;;;;;21.26;59.53;100971.75;5040065;28;2438;-69
2023/10/07 05:46:21;;;;;;;;;;;;;;;21.26;59.50;100968.88;5038575;28;2453;-68
2023/10/07 05:48:47;;;;;;;;;;;;;;;21.27;59.84;100967.47;5040260;28;2455;-69
2023/10/07 05:51:16;;;;;;;;;;;;;;;21.25;59.60;100970.25;5038329;28;2499;-68
2023/10/07 05:53:45;;;;;;;;;;;;;;;21.27;59.56;100967.47;5038848;28;2416;-68
2023/10/07 05:56:12;;;;;;;;;;;;;;;21.26;59.78;100974.63;5038311;28;2484;-68
2023/10/07 05:58:38;;;;;;;;;;;;;;;21.27;59.60;100969.59;5021230;28;2354;-69
2023/10/07 06:01:05;;;;;;;;;;;;;;;21.26;59.80;100977.50;5028604;28;7279;-69
2023/10/07 06:03:32;;;;;;;;;;;;;;;21.26;59.65;100977.50;5017810;28;2492;-69
2023/10/07 06:05:59;;;;;;;;;;;;;;;21.26;59.91;100986.16;5035473;28;2539;-69
2023/10/07 06:08:28;;;;;;;;;;;;;;;21.25;59.86;100973.13;5038209;28;2451;-68
2023/10/07 06:10:56;;;;;;;;;;;;;;;21.26;59.59;100977.50;5038481;28;1571;-69
2023/10/07 06:13:23;;;;;;;;;;;;;;;21.25;59.79;100984.66;5038208;28;2370;-69
2023/10/07 06:15:49;;;;;;;;;;;;;;;21.25;59.86;100987.53;5036875;28;2401;-69
2023/10/07 06:18:18;;;;;;;;;;;;;;;21.25;59.56;100986.78;5033433;28;2530;-68
2023/10/07 06:20:46;;;;;;;;;;;;;;;21.25;59.58;100981.78;5035756;28;2678;-69
2023/10/07 06:23:14;;;;;;;;;;;;;;;21.24;59.92;100997.56;5034751;28;2517;-69
2023/10/07 06:25:42;;;;;;;;;;;;;;;21.26;59.63;101009.19;5036185;28;2500;-68
2023/10/07 06:28:10;;;;;;;;;;;;;;;21.26;59.88;101006.31;5039306;28;2511;-69
2023/10/07 06:30:38;;;;;;;;;;;;;;;21.26;59.60;101011.34;5039516;28;6163;-69
2023/10/07 06:33:04;;;;;;;;;;;;;;;21.23;59.72;101010.47;5039829;28;2504;-68
2023/10/07 06:35:33;;;;;;;;;;;;;;;21.24;59.63;101009.09;5039827;28;2563;-69
2023/10/07 06:38:00;;;;;;;;;;;;;;;21.24;59.85;101011.97;5042679;28;2444;-69
2023/10/07 06:40:28;;;;;;;;;;;;;;;21.25;59.71;101022.09;5041065;28;2130;-68
2023/10/07 06:43:01;;;;;;;;;;;;;;;21.24;59.82;101023.50;5042101;28;2327;-69
2023/10/07 06:45:38;;;;;;;;;;;;;;;21.23;59.85;101027.75;5041290;28;2134;-69
2023/10/07 06:48:12;;;;;;;;;;;;;;;21.23;59.60;101030.63;5041563;28;1670;-69
2023/10/07 06:50:41;;;;;;;;;;;;;;;21.24;59.82;101037.16;5042446;28;1602;-69
2023/10/07 06:53:11;;;;;;;;;;;;;;;21.24;59.79;101029.25;5024405;28;2193;-69
2023/10/07 06:55:41;;;;;;;;;;;;;;;21.28;59.73;101035.22;5040468;28;2154;-71
2023/10/07 06:58:09;;;;;;;;;;;;;;;21.26;60.07;101034.38;5043370;28;1650;-72
2023/10/07 07:00:48;;;;;;;;;;;;;;;21.28;60.09;101040.97;5041591;28;6301;-72
2023/10/07 07:03:18;;;;;;;;;;;;;;;21.27;59.84;101033.72;5041802;28;2030;-71
2023/10/07 07:05:51;;;;;;;;;;;;;;;21.25;60.38;101039.38;5040802;28;2263;-72
2023/10/07 07:08:22;;;;;;;;;;;;;;;21.27;60.34;101039.47;5043397;28;1832;-77
2023/10/07 07:10:55;;;;;;;;;;;;;;;21.34;60.22;101040.50;5042430;28;2188;-75
2023/10/07 07:13:27;;;;;;;;;;;;;;;21.27;60.32;101035.84;5038303;28;2453;-76
2023/10/07 07:15:57;;;;;;;;;;;;;;;21.29;60.19;101042.44;5040583;28;2544;-75
2023/10/07 07:18:27;;;;;;;;;;;;;;;21.32;60.19;101049.03;5039042;28;2566;-75
2023/10/07 07:23:25;;;;;;;;;;;;;;;21.31;60.01;101041.81;5040917;28;2584;-76
2023/10/07 07:28:30;;;;;;;;;;;;;;;21.30;59.88;101052.59;5040668;28;2494;-76
2023/10/07 07:30:59;;;;;;;;;;;;;;;21.31;59.98;101050.44;5038349;28;6287;-76
2023/10/07 07:33:29;;;;;;;;;;;;;;;21.31;59.95;101045.41;5039124;28;2635;-76
2023/10/07 07:35:58;;;;;;;;;;;;;;;21.31;60.15;101042.53;5040538;28;2669;-75
2023/10/07 07:38:29;;;;;;;;;;;;;;;21.32;60.46;101058.41;5040320;28;2408;-76
2023/10/07 07:41:26;;;;;;;;;;;;;;;21.31;60.18;101056.94;5040467;28;2479;-76
2023/10/07 07:43:53;;;;;;;;;;;;;;;21.30;60.25;101055.47;5041464;28;2246;-76
2023/10/07 07:46:51;;;;;;;;;;;;;;;21.26;60.23;101069.69;5040192;28;2374;-76
2023/10/07 07:49:27;;;;;;;;;;;;;;;21.40;59.86;101072.50;5032190;28;3211;-78
2023/10/07 07:51:54;;;;;;;;;;;;;;;21.57;60.51;101061.69;5022989;28;4219;-81
2023/10/07 07:54:24;;;;;;;;;;;;;;;21.59;59.95;101053.88;5040034;28;2901;-79
2023/10/07 07:56:54;;;;;;;;;;;;;;;21.79;60.70;101056.19;5037911;28;4405;-79
2023/10/07 07:59:21;;;;;;;;;;;;;;;21.96;59.58;101055.47;5040494;28;2753;-80
2023/10/07 08:01:53;;;;;;;;;;;;;;;21.79;59.53;101054.03;5040364;28;6190;-79
2023/10/07 08:04:42;;;;;;;;;;;;;;;21.49;59.65;101067.84;5039520;28;2664;-79
2023/10/07 08:07:21;;;;;;;;;;;;;;;21.34;59.92;101063.53;5040141;28;2701;-78
2023/10/07 08:09:50;;;;;;;;;;;;;;;21.29;60.31;101061.88;5040664;28;2801;-80
2023/10/07 08:12:28;;;;;;;;;;;;;;;21.34;60.35;101063.53;5039869;28;2697;-79
2023/10/07 08:14:58;;;;;;;;;;;;;;;21.37;60.44;101078.78;5024078;28;4255;-79
2023/10/07 08:17:27;;;;;;;;;;;;;;;21.48;60.19;101077.88;5025993;28;2723;-77
2023/10/07 08:19:54;;;;;;;;;;;;;;;21.51;60.25;101076.56;5040461;28;2805;-78
2023/10/07 08:22:20;;;;;;;;;;;;;;;21.47;60.40;101073.50;5037194;28;2658;-78
2023/10/07 08:24:49;;;;;;;;;;;;;;;21.42;60.23;101081.22;5037055;28;2861;-76
2023/10/07 08:30:07;;;;;;;;;;;;;;;21.47;60.53;101059.09;5036423;28;6197;-75
2023/10/07 08:32:43;;;;;;;;;;;;;;;21.39;60.49;101047.91;5040995;28;2735;-76
2023/10/07 08:35:16;;;;;;;;;;;;;;;21.47;60.69;101054.09;5035797;28;4328;-78
2023/10/07 08:37:46;;;;;;;;;;;;;;;21.63;59.99;101056.94;5039804;28;2671;-75
2023/10/07 08:40:25;;;;;;;;;;;;;;;21.69;59.82;101057.22;5038777;28;2668;-77
2023/10/07 08:42:56;;;;;;;;;;;;;;;21.65;59.94;101054.16;5021408;28;4353;-73
2023/10/07 08:45:25;;;;;;;;;;;;;;;21.77;59.62;101061.84;5038076;28;2702;-75
2023/10/07 08:47:51;;;;;;;;;;;;;;;21.82;59.46;101064.25;5038898;28;2749;-76
2023/10/07 08:50:19;;;;;;;;;;;;;;;21.85;59.09;101059.31;5040916;28;2742;-73
2023/10/07 08:52:46;;;;;;;;;;;;;;;21.86;59.02;101057.94;5042133;28;1614;-73
2023/10/07 08:55:14;;;;;;;;;;;;;;;21.80;59.02;101060.53;5021706;28;2981;-75
2023/10/07 08:57:46;;;;;;;;;;;;;;;21.58;60.06;101061.03;5034625;28;3308;-77
2023/10/07 09:00:20;;;;;;;;;;;;;;;21.72;60.08;101061.66;5021224;28;6696;-73
2023/10/07 09:02:48;;;;;;;;;;;;;;;21.89;59.63;101060.22;5021828;28;2711;-74
2023/10/07 09:05:20;;;;;;;;;;;;;;;21.98;59.23;101049.78;5039297;28;3004;-74
2023/10/07 09:07:49;;;;;;;;;;;;;;;22.06;58.94;101047.25;5038722;28;2853;-74
2023/10/07 09:10:17;;;;;;;;;;;;;;;22.05;58.87;101045.75;5039657;28;2824;-75
2023/10/07 09:12:48;;;;;;;;;;;;;;;22.07;58.94;101050.88;5039381;28;2696;-75
2023/10/07 09:15:25;;;;;;;;;;;;;;;22.09;58.73;101051.72;5039966;28;3091;-77
2023/10/07 09:18:03;;;;;;;;;;;;;;;21.87;59.05;101048.59;5038538;28;2702;-74
2023/10/07 09:20:29;;;;;;;;;;;;;;;21.84;59.32;101046.31;5037476;28;2823;-74
2023/10/07 09:23:14;;;;;;;;;;;;;;;21.83;59.21;101047.69;5038818;28;2690;-73
2023/10/07 09:25:46;;;;;;;;;;;;;;;21.85;59.29;101042.00;5038950;28;2631;-73
2023/10/07 09:28:13;;;;;;;;;;;;;;;21.88;58.97;101046.47;5036799;28;2742;-73
2023/10/07 09:33:13;;;;;;;;;;;;;;;21.75;59.52;101045.94;5038851;28;2786;-78
2023/10/07 09:35:42;;;;;;;;;;;;;;;21.53;60.15;101048.59;5037070;28;2736;-74
2023/10/07 09:38:12;;;;;;;;;;;;;;;21.49;60.18;101056.31;5038214;28;3118;-73
2023/10/07 09:43:27;;;;;;;;;;;;;;;21.64;60.01;101055.53;5039530;28;2344;-70
2023/10/07 09:45:53;;;;;;;;;;;;;;;21.61;59.98;101065.50;5038989;28;2376;-72
2023/10/07 09:48:23;;;;;;;;;;;;;;;21.66;60.20;101055.63;5020079;28;2463;-71
2023/10/07 09:50:50;;;;;;;;;;;;;;;21.65;60.13;101045.50;5039707;28;2286;-71
2023/10/07 09:53:30;;;;;;;;;;;;;;;21.61;60.34;101042.44;5040228;28;2192;-71
2023/10/07 09:56:11;;;;;;;;;;;;;;;21.58;60.60;101046.63;5023170;28;2071;-71
2023/10/07 09:59:03;;;;;;;;;;;;;;;21.56;60.21;101052.31;5023114;28;1645;-71
2023/10/07 10:01:38;;;;;;;;;;;;;;;21.56;60.19;101043.66;5026476;28;6177;-72
2023/10/07 10:04:27;;;;;;;;;;;;;;;21.54;60.17;101046.44;5044394;28;1933;-71
2023/10/07 10:07:12;;;;;;;;;;;;;;;21.53;60.31;101051.47;5045395;28;2174;-71
2023/10/07 10:12:28;;;;;;;;;;;;;;;21.51;60.16;101056.41;5030381;28;2002;-71
2023/10/07 10:15:50;;;;;;;;;;;;;;;21.52;60.44;101049.25;5043320;28;2340;-71
2023/10/07 10:17:56;;;;;;;;;;;;;;;21.48;60.29;101043.28;5045343;28;1785;-71
2023/10/07 10:20:27;;;;;;;;;;;;;;;21.47;60.36;101036.78;5043656;28;2204;-71
2023/10/07 10:22:57;;;;;;;;;;;;;;;21.46;60.45;101028.78;5044596;28;1770;-71
2023/10/07 10:25:36;;;;;;;;;;;;;;;21.46;60.58;101029.56;5044411;28;1954;-71
2023/10/07 10:28:03;;;;;;;;;;;;;;;21.48;60.36;101031.75;5042513;28;2134;-71
2023/10/07 10:30:29;;;;;;;;;;;;;;;21.47;60.37;101024.53;5042114;28;6670;-71
2023/10/07 10:32:58;;;;;;;;;;;;;;;21.44;60.39;101029.47;5044165;28;2058;-71
2023/10/07 10:35:24;;;;;;;;;;;;;;;21.44;60.44;101032.34;5044949;28;1731;-70
2023/10/07 10:37:55;;;;;;;;;;;;;;;21.43;60.33;101030.09;5043236;28;1801;-71
2023/10/07 10:40:21;;;;;;;;;;;;;;;21.43;60.55;101030.84;5027427;28;2107;-71
2023/10/07 10:42:48;;;;;;;;;;;;;;;21.43;60.56;101019.31;5044003;28;1844;-71
2023/10/07 10:45:19;;;;;;;;;;;;;;;21.43;60.49;101009.94;5042638;28;2170;-71
2023/10/07 10:47:46;;;;;;;;;;;;;;;21.40;60.22;101002.59;5043799;28;1710;-71
2023/10/07 10:50:16;;;;;;;;;;;;;;;21.41;60.46;100998.31;5043426;28;2192;-71
2023/10/07 10:52:47;;;;;;;;;;;;;;;21.41;60.65;100992.56;5043722;28;2186;-71
2023/10/07 10:55:17;;;;;;;;;;;;;;;21.40;60.35;100996.81;5043485;28;1797;-70
2023/10/07 10:57:43;;;;;;;;;;;;;;;21.41;60.26;100998.31;5044055;28;1603;-71
2023/10/07 11:00:48;;;;;;;;;;;;;;;21.40;60.52;100991.81;5043072;28;6594;-71
2023/10/07 11:03:03;;;;;;;;;;;;;;;21.39;60.29;100989.56;5040304;28;2062;-71
2023/10/07 11:05:30;;;;;;;;;;;;;;;21.41;60.40;100983.91;5042689;28;2075;-71
2023/10/07 11:07:56;;;;;;;;;;;;;;;21.38;60.34;100988.09;5026988;28;1586;-71
2023/10/07 11:10:23;;;;;;;;;;;;;;;21.38;60.52;100973.69;5041978;28;2142;-71
2023/10/07 11:12:56;;;;;;;;;;;;;;;21.36;60.66;100985.13;5023201;28;2177;-71
2023/10/07 11:15:26;;;;;;;;;;;;;;;21.36;60.59;100979.34;5042313;28;2156;-71
2023/10/07 11:17:53;;;;;;;;;;;;;;;21.36;60.69;100985.84;5043267;28;2553;-71
2023/10/07 11:20:22;;;;;;;;;;;;;;;21.36;60.43;100970.72;5043831;28;1758;-71
2023/10/07 11:22:49;;;;;;;;;;;;;;;21.33;60.35;100982.16;5040936;28;2519;-71
2023/10/07 11:25:16;;;;;;;;;;;;;;;21.36;60.23;100979.34;5042981;28;2653;-71
2023/10/07 11:27:42;;;;;;;;;;;;;;;21.33;60.52;100976.38;5041005;28;2322;-71
2023/10/07 11:30:11;;;;;;;;;;;;;;;21.33;60.59;100970.63;5042473;28;6125;-71
2023/10/07 11:32:43;;;;;;;;;;;;;;;21.32;60.39;100972.00;5044046;28;1630;-71
2023/10/07 11:35:17;;;;;;;;;;;;;;;21.34;60.55;100980.75;5043239;28;1562;-71
2023/10/07 11:37:49;;;;;;;;;;;;;;;21.32;60.30;100977.75;5044006;28;1722;-66
2023/10/07 11:40:18;;;;;;;;;;;;;;;21.31;60.38;100967.66;5044437;28;2193;-72
2023/10/07 11:42:45;;;;;;;;;;;;;;;21.32;60.37;100966.25;5043842;28;1591;-67
2023/10/07 11:45:12;;;;;;;;;;;;;;;21.32;60.25;100963.34;5040586;28;2149;-68
2023/10/07 11:47:39;;;;;;;;;;;;;;;21.33;60.52;100959.09;5043410;28;2181;-67
2023/10/07 11:50:07;;;;;;;;;;;;;;;21.31;60.36;100961.88;5042182;28;2185;-67
2023/10/07 11:52:37;;;;;;;;;;;;;;;21.30;60.43;100966.19;5042487;28;2240;-68
2023/10/07 11:55:07;;;;;;;;;;;;;;;21.30;60.73;100966.19;5043323;28;1845;-67
2023/10/07 11:57:34;;;;;;;;;;;;;;;21.28;60.65;100968.97;5043412;28;1845;-68
2023/10/07 12:00:01;;;;;;;;;;;;;;;21.29;60.39;100964.69;5042078;28;2070;-67
2023/10/07 12:02:28;;;;;;;;;;;;;;;21.29;60.79;100966.81;5040871;28;5948;-68
2023/10/07 12:04:54;;;;;;;;;;;;;;;21.29;60.72;100956.03;5043101;28;1884;-68
2023/10/07 12:07:21;;;;;;;;;;;;;;;21.30;60.65;100954.66;5042568;28;2007;-67
2023/10/07 12:09:48;;;;;;;;;;;;;;;21.28;60.75;100954.56;5042070;28;1586;-67
2023/10/07 12:12:15;;;;;;;;;;;;;;;21.27;60.55;100955.94;5042315;28;2126;-67
2023/10/07 12:14:41;;;;;;;;;;;;;;;21.27;60.68;100958.09;5043039;28;1926;-67
2023/10/07 12:17:08;;;;;;;;;;;;;;;21.28;60.70;100966.09;5025569;28;1586;-67
2023/10/07 12:19:36;;;;;;;;;;;;;;;21.28;60.42;100957.44;5040265;28;2276;-67
2023/10/07 12:22:06;;;;;;;;;;;;;;;21.29;60.32;100952.41;5041139;28;2146;-67
2023/10/07 12:24:33;;;;;;;;;;;;;;;21.29;60.40;100955.28;5040672;28;1604;-67
2023/10/07 12:26:59;;;;;;;;;;;;;;;21.27;60.45;100955.22;5041345;28;1967;-67
2023/10/07 12:29:26;;;;;;;;;;;;;;;21.27;60.48;100952.31;5042503;28;2010;-68
2023/10/07 12:31:52;;;;;;;;;;;;;;;21.25;60.72;100952.22;5040737;28;6900;-67
2023/10/07 12:34:20;;;;;;;;;;;;;;;21.26;60.66;100954.47;5042855;28;2082;-67
2023/10/07 12:36:47;;;;;;;;;;;;;;;21.27;60.33;100953.06;5037950;28;2347;-67
2023/10/07 12:39:14;;;;;;;;;;;;;;;21.27;60.53;100967.47;5043176;28;1663;-67
2023/10/07 12:41:41;;;;;;;;;;;;;;;21.25;60.59;100952.97;5041956;28;2141;-67
2023/10/07 12:44:10;;;;;;;;;;;;;;;21.25;60.43;100946.47;5041207;28;1730;-67
2023/10/07 12:46:39;;;;;;;;;;;;;;;21.25;60.70;100955.84;5041783;28;2141;-67
2023/10/07 12:49:09;;;;;;;;;;;;;;;21.24;60.56;100954.38;5042902;28;2463;-67
2023/10/07 12:51:43;;;;;;;;;;;;;;;21.25;60.44;100947.22;5041201;28;2165;-67
2023/10/07 12:54:10;;;;;;;;;;;;;;;21.25;60.73;100952.97;5039549;28;2113;-67
2023/10/07 12:56:37;;;;;;;;;;;;;;;21.25;60.56;100944.31;5039633;28;2184;-67
2023/10/07 12:59:07;;;;;;;;;;;;;;;21.24;60.57;100951.50;5041409;28;1591;-68
2023/10/07 13:01:34;;;;;;;;;;;;;;;21.24;60.53;100933.47;5041192;28;6508;-67
2023/10/07 13:04:01;;;;;;;;;;;;;;;21.24;60.48;100945.00;5021226;28;2302;-67
2023/10/07 13:06:28;;;;;;;;;;;;;;;21.27;60.63;100950.19;5039015;28;2192;-68
2023/10/07 13:08:56;;;;;;;;;;;;;;;21.33;60.48;100936.06;5035942;28;2142;-68
2023/10/07 13:11:26;;;;;;;;;;;;;;;21.25;60.50;100947.22;5037219;28;3000;-68
2023/10/07 13:13:56;;;;;;;;;;;;;;;21.29;60.32;100947.41;5037739;28;2279;-67
2023/10/07 13:16:23;;;;;;;;;;;;;;;21.30;60.61;100946.00;5038813;28;1613;-68
2023/10/07 13:18:50;;;;;;;;;;;;;;;21.29;60.41;100941.63;5037392;28;1661;-67
2023/10/07 13:21:19;;;;;;;;;;;;;;;21.27;60.62;100950.19;5037942;28;1853;-67
2023/10/07 13:23:46;;;;;;;;;;;;;;;21.25;60.70;100938.56;5038808;28;2140;-68
2023/10/07 13:26:12;;;;;;;;;;;;;;;21.26;60.63;100947.97;5037592;28;2085;-67
2023/10/07 13:28:39;;;;;;;;;;;;;;;21.24;60.78;100939.25;5037660;28;2125;-68
2023/10/07 13:31:07;;;;;;;;;;;;;;;21.24;60.50;100934.22;5037824;28;6657;-67
2023/10/07 13:33:36;;;;;;;;;;;;;;;21.25;60.72;100941.44;5038405;28;1909;-68
2023/10/07 13:36:03;;;;;;;;;;;;;;;21.25;60.77;100941.44;5037316;28;2124;-68
2023/10/07 13:38:31;;;;;;;;;;;;;;;21.26;60.42;100940.06;5039651;28;1734;-67
2023/10/07 13:40:57;;;;;;;;;;;;;;;21.26;60.83;100937.19;5038077;28;2138;-68